AirNav   Pilot Hours Calculator
 
 1531 users online  

43A Montgomery County Airport
Star, North Carolina, USA

GOING TO STAR?


FAA INFORMATION EFFECTIVE 19 MAY 2022

Location

FAA Identifier: 43A
Lat/Long: 35-23-04.7390N 079-47-24.9590W
35-23.078983N 079-47.415983W
35.3846497,-79.7902664
(estimated)
Elevation: 632.5 ft. / 192.8 m (surveyed)
Variation: 06W (1985)
Time zone: UTC -4 (UTC -5 during Standard Time)
Zip code: 27356

Airport Operations

Airport use: Open to the public
Activation date: 07/1965
Control tower: no
ARTCC: WASHINGTON CENTER
FSS: RALEIGH FLIGHT SERVICE STATION
NOTAMs facility: RDU (NOTAM-D service available)
Attendance: UNATTENDED
Wind indicator: lighted
Segmented circle: no
Lights: ACTVT PAPI RWY 03 & 21; MIRL RWY 03/21 - CTAF.
Beacon: white-green (lighted land airport)
Operates sunset to sunrise.

Airport Communications

CTAF/UNICOM: 122.8
FAYETTEVILLE APPROACH: 127.8
FAYETTEVILLE DEPARTURE: 127.8
WX AWOS-3 at HBI (17 nm N): 119.275 (336-626-7933)
WX AWOS-3 at VUJ (18 nm W): 128.175 (704-986-2097)

Nearby radio navigation aids

VOR radial/distance  VOR name  Freq  Var
SDZr319/14.2SANDHILLS VORTAC111.8003W
LIBr202/27.0LIBERTY VORTAC113.0003W

Airport Services

Parking: tiedowns
Airframe service: NONE
Powerplant service: NONE
Bottled oxygen: NONE
Bulk oxygen: NONE

Runway Information

Runway 3/21

Dimensions: 4002 x 75 ft. / 1220 x 23 m
Surface: asphalt, in excellent condition
Weight bearing capacity: 
Single wheel: 20.0
Runway edge lights: medium intensity
RUNWAY 3  RUNWAY 21
Latitude: 35-22.772023N35-23.385948N
Longitude: 079-47.563203W079-47.268743W
Elevation: 572.7 ft.632.5 ft.
Traffic pattern: leftleft
Runway heading: 027 magnetic, 021 true207 magnetic, 201 true
Displaced threshold: no458 ft.
Markings: nonprecision, in good conditionnonprecision, in good condition
Visual slope indicator: 2-light PAPI on left (3.50 degrees glide path)2-light PAPI on left (4.00 degrees glide path)
Runway end identifier lights: nono
Touchdown point: yes, no lightsyes, no lights
Obstructions: 48 ft. trees, 1455 ft. from runway, 18 ft. right of centerline, 26:1 slope to clear30 ft. pole, 449 ft. from runway, 126 ft. left of centerline, 8:1 slope to clear
APCH RATIO 20:1 TO DSPLCD THR.

Airport Ownership and Management from official FAA records

Ownership: Publicly-owned
Owner: MONTGOMERY COUNTY
PO BOX 425
TROY, NC 27371
Phone 910-576-4221
Manager: KEVIN MCNEILL
PO BOX 425
TROY, NC 27371
Phone (910) 220-1218
MGR PHONE 910-220-1218.

Airport Operational Statistics

Aircraft based on the field: 11
Single engine airplanes: 11
    
Aircraft operations: avg 92/week *
42% military
31% transient general aviation
27% local general aviation
* for 12-month period ending 11 May 2019

Additional Remarks

DEER OCCASIONALLY ON RWY.
40 FT PLINE 350-750 FT FM THR RWY 21 ACROSS & L OF CNTRLN.
20-25 FT DEPRESSION 180 FT S OF RWY 03 THR ON CNTRLN.
RWY 03 HAS UPHILL GRADE.
35-40 FT DROP-OFF 80 FT W OF RWY 03 CNTRLN; 30 FT DROP-OFF 300 FT FM RWY 21 THR ON CNTRLN; 30 FT DROP-OFF 80 FT R OF RWY 21 CNTRLN.
FOR CD CTC FAYETTEVILLE APCH AT 910-484-8012.

Instrument Procedures

NOTE: All procedures below are presented as PDF files. If you need a reader for these files, you should download the free Adobe Reader.

NOT FOR NAVIGATION. Please procure official charts for flight.
FAA instrument procedures published for use from 19 May 2022 at 0901Z to 16 June 2022 at 0900Z.

 
IAPs - Instrument Approach Procedures
RNAV (GPS) RWY 03   download (192KB)
RNAV (GPS) RWY 21   download (209KB)
NOTE: Special Take-Off Minimums/Departure Procedures apply   download

Other nearby airports with instrument procedures:

KHBI - Asheboro Regional Airport (17 nm N)
KVUJ - Stanly County Airport (18 nm W)
KSOP - Moore County Airport (22 nm SE)
KSCR - Siler City Municipal Airport (24 nm NE)
KHFF - Mackall Army Airfield (25 nm SE)
 
Loc | Ops | Rwys | IFR | FBO | Links
Com | Nav | Svcs | Stats | Notes
Area around 43A (Montgomery County Airport)
 
Road maps at: MapQuest Bing Google
 
Aerial photo
WARNING: Photo may not be current or correct
Aerial photo of 43A (Montgomery County Airport)
Photo courtesy of AirNav, LLC
Photo taken 09-Aug-2010
looking South.

Do you have a better or more recent aerial photo of Montgomery County Airport that you would like to share? If so, please send us your photo.

 
Sectional chart

 
Airport distance calculator
Flying to Montgomery County Airport? Find the distance to fly.

From to 43A

Sunrise and sunset
Times for 26-May-2022
 Local
(UTC-4)
 Zulu
(UTC)
Morning civil twilight05:4009:40
Sunrise06:0910:09
Sunset20:2400:24
Evening civil twilight20:5300:53

Current date and time
Zulu (UTC)  26-May-2022 15:41:43
Local (UTC-4)  26-May-2022 11:41:43
 
METAR
KHBI 
17nm N 
261515Z AUTO 11005KT 10SM OVC011 20/17 A3024 RMK AO2 T02030172
KVUJ 
18nm W 
261515Z AUTO 11004KT 10SM OVC012 22/18 A3024 RMK AO2 LTG DSNT W T02160177
KSOP 
22nm SE 
261456Z AUTO 05006KT 10SM OVC012 21/17 A3023 RMK AO2 SLP238 T02060172 58007 TSNO
KSCR 
24nm NE 
261515Z AUTO 11003KT 10SM OVC009 20/18 A3023 RMK AO2 T01950175
KAFP 
26nm SW 
261515Z AUTO 11006KT 10SM BKN013 OVC023 23/18 A3019 RMK AO2 T02270181
KHFF 
26nm SE 
261456Z AUTO 17007KT 10SM FEW013 OVC047 21/18 A3019 RMK AO2 SLP224 T02140182 57008
KRCZ 
30nm S 
261515Z AUTO 12005KT 10SM BKN014 23/18 A3021 RMK AO2 T02250181
TAF
KPOB 
40nm E 
260100Z 2601/2707 05008KT 9999 BKN015 OVC025 QNH3019INS TEMPO 2601/2603 SCT015 BKN025 BECMG 2604/2605 05006KT 8000 BR SCT005 OVC007 QNH3017INS BECMG 2614/2615 10008KT 9999 NSW SCT010 BKN015 OVC025 QNH3013INS BECMG 2616/2617 16010G15KT 9999 SCT025 BKN150 BKN250 QNH3012INS BECMG 2623/2624 17008KT 9999 SCT030 BKN040 BKN200 QNH3006INS BECMG 2703/2704 18008KT 8000 BR SCT008 BKN012 QNH3002INS TX27/2617Z TN17/2610Z LAST NO AMDS AFT 2602 NEXT 2617
KGSO 
44nm N 
261304Z 2613/2712 11003KT P6SM OVC007 FM261400 13005KT P6SM BKN007 OVC012 FM261500 14006KT P6SM BKN012 OVC030 FM261800 15007KT P6SM BKN020 BKN035 FM262100 15007KT P6SM SCT022 BKN035 FM270200 15009KT 4SM SHRA BKN006 OVC020 PROB30 2702/2706 20015G25KT 1 1/2SM TSRA SCT007 OVC015CB
KFBG 
46nm E 
260900Z 2609/2715 05006KT 8000 BR OVC009 QNH3020INS BECMG 2614/2615 12006KT 9999 NSW SCT020 BKN040 QNH3020INS BECMG 2707/2708 16006KT 8000 BR BKN020 QNH2995INS BECMG 2714/2715 18012G18KT 8000 -SHRA BKN015 QNH2989INS TEMPO 2714/2715 19015G30KT 9000 -TSRA BKN015CB OVC035 TX28/2620Z TN17/2610Z
KINT 
49nm NW 
261403Z 2614/2712 11006KT P6SM OVC006 FM261430 13005KT P6SM BKN007 OVC012 FM261500 14006KT P6SM BKN012 OVC030 FM261800 15007KT P6SM BKN020 BKN035 FM262100 15007KT P6SM SCT022 BKN035 FM270200 15009KT 4SM SHRA BKN007 OVC020 PROB30 2702/2706 20015G25KT 1 1/2SM TSRA SCT007 OVC015CB
NOTAMs
Click for the latest NOTAMs
NOTAMs are issued by the DoD/FAA and will open in a separate window not controlled by AirNav.

 

 
 

FBO, Fuel Providers, and Aircraft Ground Support

  
 Business Name 
 
 Contact 
 
 Services / Description 
 
Fuel Prices
 
Comments
  
Montgomery County (FBO) 910-576-4221
[email]
Airport management, Aviation fuel, Aircraft parking (ramp or tiedown), Hangar leasing / sales, Passenger terminal and lounge, Pilots lounge / snooze room
 
Wireless Internet Access (WiFi)  
 
More info about Montgomery County (FBO)
Titan
100LL
SS $5.58 
 Updated 07-Apr-2022
 
   2 read write
SS=Self service
Update Fuel Prices
 

Would you like to see your business listed on this page?

 If your business provides an interesting product or service to pilots, flight crews, aircraft, or users of the Montgomery County Airport, you should consider listing it here.  To start the listing process, click on the button below
 
Add a business
 

Other Pages about Montgomery County Airport

Update a link
 
Copyright © AirNav, LLC. All rights reserved. Privacy Policy  Contact